sensor_id;sensor_type;location;lat;lon;timestamp;temperature;humidity
5210;DHT22;2624;48.048;11.706;2023-05-19T00:00:46;9.80;99.90
5210;DHT22;2624;48.048;11.706;2023-05-19T00:05:48;9.80;99.90
5210;DHT22;2624;48.048;11.706;2023-05-19T00:10:54;9.70;99.90
5210;DHT22;2624;48.048;11.706;2023-05-19T00:15:57;9.60;99.90
5210;DHT22;2624;48.048;11.706;2023-05-19T00:20:58;9.80;99.90
5210;DHT22;2624;48.048;11.706;2023-05-19T00:26:02;9.70;99.90
5210;DHT22;2624;48.048;11.706;2023-05-19T00:31:04;9.60;99.90
5210;DHT22;2624;48.048;11.706;2023-05-19T00:36:07;9.70;99.90
5210;DHT22;2624;48.048;11.706;2023-05-19T00:41:10;9.60;99.90
5210;DHT22;2624;48.048;11.706;2023-05-19T00:46:12;9.50;99.90
5210;DHT22;2624;48.048;11.706;2023-05-19T00:51:14;9.60;99.90
5210;DHT22;2624;48.048;11.706;2023-05-19T00:56:18;9.60;99.90
5210;DHT22;2624;48.048;11.706;2023-05-19T01:01:21;9.50;99.90
5210;DHT22;2624;48.048;11.706;2023-05-19T01:06:23;9.60;99.90
5210;DHT22;2624;48.048;11.706;2023-05-19T01:11:26;9.60;99.90
5210;DHT22;2624;48.048;11.706;2023-05-19T01:16:31;9.60;99.90
5210;DHT22;2624;48.048;11.706;2023-05-19T01:22:16;9.50;99.90
5210;DHT22;2624;48.048;11.706;2023-05-19T01:27:42;9.60;99.90
5210;DHT22;2624;48.048;11.706;2023-05-19T01:32:48;9.50;99.90
5210;DHT22;2624;48.048;11.706;2023-05-19T01:37:54;9.50;99.90
5210;DHT22;2624;48.048;11.706;2023-05-19T01:42:58;9.50;99.90
5210;DHT22;2624;48.048;11.706;2023-05-19T01:48:03;9.50;99.90
5210;DHT22;2624;48.048;11.706;2023-05-19T01:53:05;9.40;99.90
5210;DHT22;2624;48.048;11.706;2023-05-19T01:58:11;9.50;99.90
5210;DHT22;2624;48.048;11.706;2023-05-19T02:03:25;9.50;99.90
5210;DHT22;2624;48.048;11.706;2023-05-19T02:08:36;9.40;99.90
5210;DHT22;2624;48.048;11.706;2023-05-19T02:13:43;9.40;99.90
5210;DHT22;2624;48.048;11.706;2023-05-19T02:18:46;9.40;99.90
5210;DHT22;2624;48.048;11.706;2023-05-19T02:23:49;9.40;99.90
5210;DHT22;2624;48.048;11.706;2023-05-19T02:28:50;9.40;99.90
5210;DHT22;2624;48.048;11.706;2023-05-19T02:33:54;9.30;99.90
5210;DHT22;2624;48.048;11.706;2023-05-19T02:38:55;9.30;99.90
5210;DHT22;2624;48.048;11.706;2023-05-19T02:43:57;9.40;99.90
5210;DHT22;2624;48.048;11.706;2023-05-19T02:49:00;9.20;99.90
5210;DHT22;2624;48.048;11.706;2023-05-19T02:54:02;9.30;99.90
5210;DHT22;2624;48.048;11.706;2023-05-19T02:59:04;9.30;99.90
5210;DHT22;2624;48.048;11.706;2023-05-19T03:04:07;9.40;99.90
5210;DHT22;2624;48.048;11.706;2023-05-19T03:09:09;9.30;99.90
5210;DHT22;2624;48.048;11.706;2023-05-19T03:14:11;9.30;99.90
5210;DHT22;2624;48.048;11.706;2023-05-19T03:19:14;9.20;99.90
5210;DHT22;2624;48.048;11.706;2023-05-19T03:24:17;9.20;99.90
5210;DHT22;2624;48.048;11.706;2023-05-19T03:29:19;9.30;99.90
5210;DHT22;2624;48.048;11.706;2023-05-19T03:34:22;9.20;99.90
5210;DHT22;2624;48.048;11.706;2023-05-19T03:39:24;9.30;99.90
5210;DHT22;2624;48.048;11.706;2023-05-19T03:44:25;9.30;99.90
5210;DHT22;2624;48.048;11.706;2023-05-19T03:49:28;9.20;99.90
5210;DHT22;2624;48.048;11.706;2023-05-19T03:54:30;9.20;99.90
5210;DHT22;2624;48.048;11.706;2023-05-19T03:59:32;9.20;99.90
5210;DHT22;2624;48.048;11.706;2023-05-19T04:04:36;9.30;99.90
5210;DHT22;2624;48.048;11.706;2023-05-19T04:09:37;9.30;99.90
5210;DHT22;2624;48.048;11.706;2023-05-19T04:14:39;9.20;99.90
5210;DHT22;2624;48.048;11.706;2023-05-19T04:19:42;9.20;99.90
5210;DHT22;2624;48.048;11.706;2023-05-19T04:24:44;9.10;99.90
5210;DHT22;2624;48.048;11.706;2023-05-19T04:29:47;9.10;99.90
5210;DHT22;2624;48.048;11.706;2023-05-19T04:34:50;9.10;99.90
5210;DHT22;2624;48.048;11.706;2023-05-19T04:39:52;9.20;99.90
5210;DHT22;2624;48.048;11.706;2023-05-19T04:44:54;9.10;99.90
5210;DHT22;2624;48.048;11.706;2023-05-19T04:49:57;9.20;99.90
5210;DHT22;2624;48.048;11.706;2023-05-19T04:55:00;9.20;99.90
5210;DHT22;2624;48.048;11.706;2023-05-19T05:00:02;9.10;99.90
5210;DHT22;2624;48.048;11.706;2023-05-19T05:05:09;9.20;99.90
5210;DHT22;2624;48.048;11.706;2023-05-19T05:10:10;9.20;99.90
5210;DHT22;2624;48.048;11.706;2023-05-19T05:15:13;9.20;99.90
5210;DHT22;2624;48.048;11.706;2023-05-19T05:20:17;9.20;99.90
5210;DHT22;2624;48.048;11.706;2023-05-19T05:25:21;9.20;99.90
5210;DHT22;2624;48.048;11.706;2023-05-19T05:30:22;9.30;99.90
5210;DHT22;2624;48.048;11.706;2023-05-19T05:35:26;9.40;99.90
5210;DHT22;2624;48.048;11.706;2023-05-19T05:40:28;9.30;99.90
5210;DHT22;2624;48.048;11.706;2023-05-19T05:45:29;9.40;99.90
5210;DHT22;2624;48.048;11.706;2023-05-19T05:50:33;9.50;99.90
5210;DHT22;2624;48.048;11.706;2023-05-19T05:55:36;9.50;99.90
5210;DHT22;2624;48.048;11.706;2023-05-19T06:00:37;9.50;99.90
5210;DHT22;2624;48.048;11.706;2023-05-19T06:05:41;9.50;99.90
5210;DHT22;2624;48.048;11.706;2023-05-19T06:10:42;9.50;99.90
5210;DHT22;2624;48.048;11.706;2023-05-19T06:15:44;9.60;99.90
5210;DHT22;2624;48.048;11.706;2023-05-19T06:20:47;9.50;99.90
5210;DHT22;2624;48.048;11.706;2023-05-19T06:25:49;9.60;99.90
5210;DHT22;2624;48.048;11.706;2023-05-19T06:30:51;9.60;99.90
5210;DHT22;2624;48.048;11.706;2023-05-19T06:35:54;9.60;99.90
5210;DHT22;2624;48.048;11.706;2023-05-19T06:40:56;9.60;99.90
5210;DHT22;2624;48.048;11.706;2023-05-19T06:45:57;9.80;99.90
5210;DHT22;2624;48.048;11.706;2023-05-19T06:51:00;9.80;99.90
5210;DHT22;2624;48.048;11.706;2023-05-19T06:56:02;9.90;99.90
5210;DHT22;2624;48.048;11.706;2023-05-19T07:01:04;9.90;99.90
5210;DHT22;2624;48.048;11.706;2023-05-19T07:06:07;9.90;99.90
5210;DHT22;2624;48.048;11.706;2023-05-19T07:11:09;10.00;99.90
5210;DHT22;2624;48.048;11.706;2023-05-19T07:16:11;10.00;99.90
5210;DHT22;2624;48.048;11.706;2023-05-19T07:21:15;10.10;99.90
5210;DHT22;2624;48.048;11.706;2023-05-19T07:26:16;10.20;99.90
5210;DHT22;2624;48.048;11.706;2023-05-19T07:31:18;10.40;99.90
5210;DHT22;2624;48.048;11.706;2023-05-19T07:36:21;10.50;99.90
5210;DHT22;2624;48.048;11.706;2023-05-19T07:41:23;10.40;99.90
5210;DHT22;2624;48.048;11.706;2023-05-19T07:46:25;10.50;99.90
5210;DHT22;2624;48.048;11.706;2023-05-19T07:51:28;10.50;99.90
5210;DHT22;2624;48.048;11.706;2023-05-19T07:56:31;10.70;99.90
5210;DHT22;2624;48.048;11.706;2023-05-19T08:01:33;10.60;99.90
5210;DHT22;2624;48.048;11.706;2023-05-19T08:06:36;10.70;99.90
5210;DHT22;2624;48.048;11.706;2023-05-19T08:11:38;10.80;99.90
5210;DHT22;2624;48.048;11.706;2023-05-19T08:16:40;10.70;99.90
5210;DHT22;2624;48.048;11.706;2023-05-19T08:21:43;10.60;99.90
5210;DHT22;2624;48.048;11.706;2023-05-19T08:26:45;10.60;99.90
5210;DHT22;2624;48.048;11.706;2023-05-19T08:31:47;10.60;99.90
5210;DHT22;2624;48.048;11.706;2023-05-19T08:36:50;10.70;99.90
5210;DHT22;2624;48.048;11.706;2023-05-19T08:41:52;10.70;99.90
5210;DHT22;2624;48.048;11.706;2023-05-19T08:46:54;10.80;99.90
5210;DHT22;2624;48.048;11.706;2023-05-19T08:52:03;10.80;99.90
5210;DHT22;2624;48.048;11.706;2023-05-19T08:57:06;10.80;99.90
5210;DHT22;2624;48.048;11.706;2023-05-19T09:02:10;10.80;99.90
5210;DHT22;2624;48.048;11.706;2023-05-19T09:07:14;10.80;99.90
5210;DHT22;2624;48.048;11.706;2023-05-19T09:12:17;10.90;99.90
5210;DHT22;2624;48.048;11.706;2023-05-19T09:17:18;10.90;99.90
5210;DHT22;2624;48.048;11.706;2023-05-19T09:22:22;10.80;99.90
5210;DHT22;2624;48.048;11.706;2023-05-19T09:27:24;10.90;99.90
5210;DHT22;2624;48.048;11.706;2023-05-19T09:32:26;10.90;99.90
5210;DHT22;2624;48.048;11.706;2023-05-19T09:37:29;10.90;99.90
5210;DHT22;2624;48.048;11.706;2023-05-19T09:42:36;10.90;99.90
5210;DHT22;2624;48.048;11.706;2023-05-19T09:47:39;10.90;99.90
5210;DHT22;2624;48.048;11.706;2023-05-19T09:52:43;10.90;99.90
5210;DHT22;2624;48.048;11.706;2023-05-19T09:57:45;10.90;99.90
5210;DHT22;2624;48.048;11.706;2023-05-19T10:02:47;10.90;99.90
5210;DHT22;2624;48.048;11.706;2023-05-19T10:07:52;11.00;99.90
5210;DHT22;2624;48.048;11.706;2023-05-19T10:12:54;11.10;99.90
5210;DHT22;2624;48.048;11.706;2023-05-19T10:17:56;11.10;99.90
5210;DHT22;2624;48.048;11.706;2023-05-19T10:23:00;11.10;99.90
5210;DHT22;2624;48.048;11.706;2023-05-19T10:28:07;11.10;99.90
5210;DHT22;2624;48.048;11.706;2023-05-19T10:33:13;11.10;99.90
5210;DHT22;2624;48.048;11.706;2023-05-19T10:38:24;11.20;99.90
5210;DHT22;2624;48.048;11.706;2023-05-19T10:43:38;11.30;99.90
5210;DHT22;2624;48.048;11.706;2023-05-19T10:48:45;11.40;99.90
5210;DHT22;2624;48.048;11.706;2023-05-19T10:53:48;11.40;99.90
5210;DHT22;2624;48.048;11.706;2023-05-19T10:58:50;11.30;99.90
5210;DHT22;2624;48.048;11.706;2023-05-19T11:03:53;11.30;99.90
5210;DHT22;2624;48.048;11.706;2023-05-19T11:08:59;11.30;99.90
5210;DHT22;2624;48.048;11.706;2023-05-19T11:14:03;11.40;99.90
5210;DHT22;2624;48.048;11.706;2023-05-19T11:19:05;11.50;99.90
5210;DHT22;2624;48.048;11.706;2023-05-19T11:24:08;11.50;99.90
5210;DHT22;2624;48.048;11.706;2023-05-19T11:29:10;11.60;99.90
5210;DHT22;2624;48.048;11.706;2023-05-19T11:34:13;11.70;99.90
5210;DHT22;2624;48.048;11.706;2023-05-19T11:39:17;11.70;99.90
5210;DHT22;2624;48.048;11.706;2023-05-19T11:44:19;11.60;99.90
5210;DHT22;2624;48.048;11.706;2023-05-19T11:49:21;11.60;99.90
5210;DHT22;2624;48.048;11.706;2023-05-19T11:54:30;11.60;99.90
5210;DHT22;2624;48.048;11.706;2023-05-19T11:59:34;11.70;99.90
5210;DHT22;2624;48.048;11.706;2023-05-19T12:04:36;11.70;99.90
5210;DHT22;2624;48.048;11.706;2023-05-19T12:09:39;11.70;99.90
5210;DHT22;2624;48.048;11.706;2023-05-19T12:14:41;11.70;99.90
5210;DHT22;2624;48.048;11.706;2023-05-19T12:19:45;11.60;99.90
5210;DHT22;2624;48.048;11.706;2023-05-19T12:24:48;11.60;99.90
5210;DHT22;2624;48.048;11.706;2023-05-19T12:29:51;11.60;99.90
5210;DHT22;2624;48.048;11.706;2023-05-19T12:34:55;11.60;99.90
5210;DHT22;2624;48.048;11.706;2023-05-19T12:39:58;11.60;99.90
5210;DHT22;2624;48.048;11.706;2023-05-19T12:45:02;11.70;99.90
5210;DHT22;2624;48.048;11.706;2023-05-19T12:50:06;11.70;99.90
5210;DHT22;2624;48.048;11.706;2023-05-19T12:55:10;11.70;99.90
5210;DHT22;2624;48.048;11.706;2023-05-19T13:00:13;11.80;99.90
5210;DHT22;2624;48.048;11.706;2023-05-19T13:05:16;11.80;99.90
5210;DHT22;2624;48.048;11.706;2023-05-19T13:10:20;11.90;99.90
5210;DHT22;2624;48.048;11.706;2023-05-19T13:15:22;11.90;99.90
5210;DHT22;2624;48.048;11.706;2023-05-19T13:20:24;12.00;99.90
5210;DHT22;2624;48.048;11.706;2023-05-19T13:25:27;12.00;99.90
5210;DHT22;2624;48.048;11.706;2023-05-19T13:30:30;12.00;99.90
5210;DHT22;2624;48.048;11.706;2023-05-19T13:35:32;12.10;99.90
5210;DHT22;2624;48.048;11.706;2023-05-19T13:40:38;12.00;99.90
5210;DHT22;2624;48.048;11.706;2023-05-19T13:45:39;12.30;99.90
5210;DHT22;2624;48.048;11.706;2023-05-19T13:50:42;12.20;99.90
5210;DHT22;2624;48.048;11.706;2023-05-19T13:55:45;12.20;99.90
5210;DHT22;2624;48.048;11.706;2023-05-19T14:00:48;12.40;99.90
5210;DHT22;2624;48.048;11.706;2023-05-19T14:05:53;12.30;99.90
5210;DHT22;2624;48.048;11.706;2023-05-19T14:10:56;12.40;99.90
5210;DHT22;2624;48.048;11.706;2023-05-19T14:15:58;12.40;99.90
5210;DHT22;2624;48.048;11.706;2023-05-19T14:21:00;12.40;99.90
5210;DHT22;2624;48.048;11.706;2023-05-19T14:26:03;12.50;99.90
5210;DHT22;2624;48.048;11.706;2023-05-19T14:31:05;12.50;99.90
5210;DHT22;2624;48.048;11.706;2023-05-19T14:36:07;12.50;99.90
5210;DHT22;2624;48.048;11.706;2023-05-19T14:41:11;12.50;99.90
5210;DHT22;2624;48.048;11.706;2023-05-19T14:46:12;12.50;99.90
5210;DHT22;2624;48.048;11.706;2023-05-19T14:51:15;12.50;99.90
5210;DHT22;2624;48.048;11.706;2023-05-19T14:56:18;12.50;99.90
5210;DHT22;2624;48.048;11.706;2023-05-19T15:01:21;12.50;99.90
5210;DHT22;2624;48.048;11.706;2023-05-19T15:06:23;12.60;99.90
5210;DHT22;2624;48.048;11.706;2023-05-19T15:11:26;12.50;99.90
5210;DHT22;2624;48.048;11.706;2023-05-19T15:16:28;12.60;99.90
5210;DHT22;2624;48.048;11.706;2023-05-19T15:21:29;12.80;99.90
5210;DHT22;2624;48.048;11.706;2023-05-19T15:26:33;12.90;99.90
5210;DHT22;2624;48.048;11.706;2023-05-19T15:31:34;13.00;99.90
5210;DHT22;2624;48.048;11.706;2023-05-19T15:36:36;12.90;99.90
5210;DHT22;2624;48.048;11.706;2023-05-19T15:41:39;13.00;99.90
5210;DHT22;2624;48.048;11.706;2023-05-19T15:46:41;13.00;99.90
5210;DHT22;2624;48.048;11.706;2023-05-19T15:51:43;13.10;99.90
5210;DHT22;2624;48.048;11.706;2023-05-19T15:56:46;13.20;99.90
5210;DHT22;2624;48.048;11.706;2023-05-19T16:01:48;13.20;99.90
5210;DHT22;2624;48.048;11.706;2023-05-19T16:06:50;13.20;99.90
5210;DHT22;2624;48.048;11.706;2023-05-19T16:11:53;13.30;99.90
5210;DHT22;2624;48.048;11.706;2023-05-19T16:16:55;13.30;99.90
5210;DHT22;2624;48.048;11.706;2023-05-19T16:21:56;13.10;99.90
5210;DHT22;2624;48.048;11.706;2023-05-19T16:26:59;13.10;99.90
5210;DHT22;2624;48.048;11.706;2023-05-19T16:32:01;13.00;99.90
5210;DHT22;2624;48.048;11.706;2023-05-19T16:37:03;13.20;99.90
5210;DHT22;2624;48.048;11.706;2023-05-19T16:42:06;13.50;99.90
5210;DHT22;2624;48.048;11.706;2023-05-19T16:47:08;13.40;99.90
5210;DHT22;2624;48.048;11.706;2023-05-19T16:52:10;13.40;99.90
5210;DHT22;2624;48.048;11.706;2023-05-19T16:57:13;13.30;99.90
5210;DHT22;2624;48.048;11.706;2023-05-19T17:02:15;13.30;99.90
5210;DHT22;2624;48.048;11.706;2023-05-19T17:07:16;13.40;99.90
5210;DHT22;2624;48.048;11.706;2023-05-19T17:12:20;13.40;99.90
5210;DHT22;2624;48.048;11.706;2023-05-19T17:17:21;13.30;99.90
5210;DHT22;2624;48.048;11.706;2023-05-19T17:22:23;13.40;99.90
5210;DHT22;2624;48.048;11.706;2023-05-19T17:27:26;13.30;99.90
5210;DHT22;2624;48.048;11.706;2023-05-19T17:32:28;13.30;99.90
5210;DHT22;2624;48.048;11.706;2023-05-19T17:37:35;13.30;99.90
5210;DHT22;2624;48.048;11.706;2023-05-19T17:42:38;13.30;99.90
5210;DHT22;2624;48.048;11.706;2023-05-19T17:47:39;13.30;99.90
5210;DHT22;2624;48.048;11.706;2023-05-19T17:52:42;13.30;99.90
5210;DHT22;2624;48.048;11.706;2023-05-19T17:57:45;13.30;99.90
5210;DHT22;2624;48.048;11.706;2023-05-19T18:02:48;13.30;99.90
5210;DHT22;2624;48.048;11.706;2023-05-19T18:07:50;13.30;99.90
5210;DHT22;2624;48.048;11.706;2023-05-19T18:12:55;13.40;99.90
5210;DHT22;2624;48.048;11.706;2023-05-19T18:17:57;13.30;99.90
5210;DHT22;2624;48.048;11.706;2023-05-19T18:22:59;13.30;99.90
5210;DHT22;2624;48.048;11.706;2023-05-19T18:28:02;13.30;99.90
5210;DHT22;2624;48.048;11.706;2023-05-19T18:33:04;13.20;99.90
5210;DHT22;2624;48.048;11.706;2023-05-19T18:38:06;13.20;99.90
5210;DHT22;2624;48.048;11.706;2023-05-19T18:43:09;13.20;99.90
5210;DHT22;2624;48.048;11.706;2023-05-19T18:48:11;13.20;99.90
5210;DHT22;2624;48.048;11.706;2023-05-19T18:53:14;13.20;99.90
5210;DHT22;2624;48.048;11.706;2023-05-19T18:58:17;13.20;99.90
5210;DHT22;2624;48.048;11.706;2023-05-19T19:03:19;13.20;99.90
5210;DHT22;2624;48.048;11.706;2023-05-19T19:08:21;13.10;99.90
5210;DHT22;2624;48.048;11.706;2023-05-19T19:13:24;13.10;99.90
5210;DHT22;2624;48.048;11.706;2023-05-19T19:18:26;13.10;99.90
5210;DHT22;2624;48.048;11.706;2023-05-19T19:23:28;13.10;99.90
5210;DHT22;2624;48.048;11.706;2023-05-19T19:28:31;13.10;99.90
5210;DHT22;2624;48.048;11.706;2023-05-19T19:33:33;13.10;99.90
5210;DHT22;2624;48.048;11.706;2023-05-19T19:38:35;13.10;99.90
5210;DHT22;2624;48.048;11.706;2023-05-19T19:43:38;13.00;99.90
5210;DHT22;2624;48.048;11.706;2023-05-19T19:48:40;13.00;99.90
5210;DHT22;2624;48.048;11.706;2023-05-19T19:53:42;13.00;99.90
5210;DHT22;2624;48.048;11.706;2023-05-19T19:58:45;13.00;99.90
5210;DHT22;2624;48.048;11.706;2023-05-19T20:03:47;13.00;99.90
5210;DHT22;2624;48.048;11.706;2023-05-19T20:08:49;13.00;99.90
5210;DHT22;2624;48.048;11.706;2023-05-19T20:13:52;13.00;99.90
5210;DHT22;2624;48.048;11.706;2023-05-19T20:18:54;13.00;99.90
5210;DHT22;2624;48.048;11.706;2023-05-19T20:23:56;13.00;99.90
5210;DHT22;2624;48.048;11.706;2023-05-19T20:28:59;13.00;99.90
5210;DHT22;2624;48.048;11.706;2023-05-19T20:34:01;13.00;99.90
5210;DHT22;2624;48.048;11.706;2023-05-19T20:39:03;12.90;99.90
5210;DHT22;2624;48.048;11.706;2023-05-19T20:44:07;12.90;99.90
5210;DHT22;2624;48.048;11.706;2023-05-19T20:49:09;12.90;99.90
5210;DHT22;2624;48.048;11.706;2023-05-19T20:54:11;12.90;99.90
5210;DHT22;2624;48.048;11.706;2023-05-19T20:59:14;12.90;99.90
5210;DHT22;2624;48.048;11.706;2023-05-19T21:04:16;12.90;99.90
5210;DHT22;2624;48.048;11.706;2023-05-19T21:09:18;12.90;99.90
5210;DHT22;2624;48.048;11.706;2023-05-19T21:14:21;12.90;99.90
5210;DHT22;2624;48.048;11.706;2023-05-19T21:19:24;12.90;99.90
5210;DHT22;2624;48.048;11.706;2023-05-19T21:24:26;12.80;99.90
5210;DHT22;2624;48.048;11.706;2023-05-19T21:29:29;12.80;99.90
5210;DHT22;2624;48.048;11.706;2023-05-19T21:34:31;12.80;99.90
5210;DHT22;2624;48.048;11.706;2023-05-19T21:39:33;12.80;99.90
5210;DHT22;2624;48.048;11.706;2023-05-19T21:44:36;12.80;99.90
5210;DHT22;2624;48.048;11.706;2023-05-19T21:49:38;12.80;99.90
5210;DHT22;2624;48.048;11.706;2023-05-19T21:54:40;12.80;99.90
5210;DHT22;2624;48.048;11.706;2023-05-19T21:59:44;12.80;99.90
5210;DHT22;2624;48.048;11.706;2023-05-19T22:04:46;12.80;99.90
5210;DHT22;2624;48.048;11.706;2023-05-19T22:09:48;12.80;99.90
5210;DHT22;2624;48.048;11.706;2023-05-19T22:14:51;12.60;99.90
5210;DHT22;2624;48.048;11.706;2023-05-19T22:19:52;12.50;99.90
5210;DHT22;2624;48.048;11.706;2023-05-19T22:24:54;12.50;99.90
5210;DHT22;2624;48.048;11.706;2023-05-19T22:29:57;12.50;99.90
5210;DHT22;2624;48.048;11.706;2023-05-19T22:34:59;12.40;99.90
5210;DHT22;2624;48.048;11.706;2023-05-19T22:40:01;12.30;99.90
5210;DHT22;2624;48.048;11.706;2023-05-19T22:45:06;12.30;99.90
5210;DHT22;2624;48.048;11.706;2023-05-19T22:50:08;12.30;99.90
5210;DHT22;2624;48.048;11.706;2023-05-19T22:55:11;12.20;99.90
5210;DHT22;2624;48.048;11.706;2023-05-19T23:00:15;12.30;99.90
5210;DHT22;2624;48.048;11.706;2023-05-19T23:05:20;12.40;99.90
5210;DHT22;2624;48.048;11.706;2023-05-19T23:10:21;12.50;99.90
5210;DHT22;2624;48.048;11.706;2023-05-19T23:15:24;12.50;99.90
5210;DHT22;2624;48.048;11.706;2023-05-19T23:20:26;12.50;99.90
5210;DHT22;2624;48.048;11.706;2023-05-19T23:25:28;12.50;99.90
5210;DHT22;2624;48.048;11.706;2023-05-19T23:30:31;12.50;99.90
5210;DHT22;2624;48.048;11.706;2023-05-19T23:35:33;12.50;99.90
5210;DHT22;2624;48.048;11.706;2023-05-19T23:40:35;12.50;99.90
5210;DHT22;2624;48.048;11.706;2023-05-19T23:45:38;12.50;99.90
5210;DHT22;2624;48.048;11.706;2023-05-19T23:50:40;12.50;99.90
5210;DHT22;2624;48.048;11.706;2023-05-19T23:55:43;12.40;99.90
